Hauptseite
METAR-TAF:

METAR-TAF

Flughäfen :

RAF Northolt

Northolt, England

Breite: 51-33N, Länge: 000-25W, Höhe: 38 m

Beobachtung

Neuester Wetterbericht von vor 45 Minuten, um 18:50 UTC
Wind 5 kt aus Südwest
Temperatur 18°C
Luftfeuchtigkeit 45%
Luftdruck 1018 hPa
Sichtweite 10 km oder mehr
keine Wolken unter 1500 m und keine Kumulonimbus oder Gewitterwolken

METAR: EGWU 221850Z 23005KT CAVOK 18/06 Q1018 NOSIG

Zeit: 20:35 (19:35 UTC)

Prognose

Neuester Wetterbericht von vor 3 Stunden und 4 Minuten, um 16:31 UTC
Gültige Prognose vom 22 um 18 UTC bis 23 um 12 UTC
Wind 8 kt aus Südwest
Sichtweite 10 km oder mehr
keine Wolken unter 1500 m und keine Kumulonimbus oder Gewitterwolken

TAF: EGWU 221631Z 2218/2312 23008KT CAVOK

Wetterbeobachtungen und Prognosen von mehr als 4000 Flughäfen (METAR und TAF Bericht).

Die verfügbaren Stationen werden durch gelbe und rote Markierungen auf der Karte dargestellt.

Führen Sie die Maus auf sie, um den Namen der Station zu sehen.

Darauf klicken, um die Beobachtung von Wetterbeobachtungen und Prognosen zu sehen.

Um die Karte zu ändern : klicken Sie auf den grünen Tasten mit einem schwarzen Kreuz Zum Vergrößern, auf den grünen Button mit einem Gedankenstrich zu verkleinern, oder auf die grünen Pfeile für benachbarte Karten.


METAR-TAF: